sensor_id;sensor_type;location;lat;lon;timestamp;pressure;altitude;pressure_sealevel;temperature;humidity
11172;BME280;5642;50.830;12.082;2024-02-23T00:02:05;96698.91;;;15.73;45.94
11172;BME280;5642;50.830;12.082;2024-02-23T00:04:31;96701.41;;;15.75;45.93
11172;BME280;5642;50.830;12.082;2024-02-23T00:06:58;96695.56;;;15.71;45.96
11172;BME280;5642;50.830;12.082;2024-02-23T00:09:25;96684.38;;;15.59;46.01
11172;BME280;5642;50.830;12.082;2024-02-23T00:11:53;96644.69;;;15.42;45.91
11172;BME280;5642;50.830;12.082;2024-02-23T00:14:20;96707.78;;;15.72;45.84
11172;BME280;5642;50.830;12.082;2024-02-23T00:16:46;96678.72;;;15.54;45.90
11172;BME280;5642;50.830;12.082;2024-02-23T00:19:13;96704.19;;;15.63;46.05
11172;BME280;5642;50.830;12.082;2024-02-23T00:21:39;96695.63;;;15.61;45.94
11172;BME280;5642;50.830;12.082;2024-02-23T00:24:17;96637.00;;;15.21;45.83
11172;BME280;5642;50.830;12.082;2024-02-23T00:26:48;96727.69;;;15.57;45.97
11172;BME280;5642;50.830;12.082;2024-02-23T00:29:14;96723.81;;;15.42;45.98
11172;BME280;5642;50.830;12.082;2024-02-23T00:31:41;96721.75;;;15.36;46.00
11172;BME280;5642;50.830;12.082;2024-02-23T00:34:07;96764.38;;;15.41;45.95
11172;BME280;5642;50.830;12.082;2024-02-23T00:36:39;96762.59;;;15.32;45.97
11172;BME280;5642;50.830;12.082;2024-02-23T00:39:07;96720.97;;;15.16;46.08
11172;BME280;5642;50.830;12.082;2024-02-23T00:41:34;96726.09;;;15.27;46.02
11172;BME280;5642;50.830;12.082;2024-02-23T00:44:01;96735.56;;;15.20;46.05
11172;BME280;5642;50.830;12.082;2024-02-23T00:46:27;96726.00;;;15.00;46.04
11172;BME280;5642;50.830;12.082;2024-02-23T00:48:56;96720.19;;;15.06;45.82
11172;BME280;5642;50.830;12.082;2024-02-23T00:51:22;96746.25;;;15.18;45.90
11172;BME280;5642;50.830;12.082;2024-02-23T00:53:48;96756.22;;;15.15;46.00
11172;BME280;5642;50.830;12.082;2024-02-23T00:56:15;96736.69;;;14.88;45.72
11172;BME280;5642;50.830;12.082;2024-02-23T00:58:42;96745.84;;;15.04;45.93
11172;BME280;5642;50.830;12.082;2024-02-23T01:01:08;96745.56;;;14.78;45.90
11172;BME280;5642;50.830;12.082;2024-02-23T01:03:34;96748.19;;;14.78;45.96
11172;BME280;5642;50.830;12.082;2024-02-23T01:06:00;96842.56;;;15.13;45.88
11172;BME280;5642;50.830;12.082;2024-02-23T01:08:26;96830.59;;;15.09;45.74
11172;BME280;5642;50.830;12.082;2024-02-23T01:10:52;96781.19;;;14.72;45.72
11172;BME280;5642;50.830;12.082;2024-02-23T01:13:19;96849.88;;;15.09;45.54
11172;BME280;5642;50.830;12.082;2024-02-23T01:15:46;96793.16;;;14.76;45.56
11172;BME280;5642;50.830;12.082;2024-02-23T01:18:13;96855.84;;;15.02;45.73
11172;BME280;5642;50.830;12.082;2024-02-23T01:20:39;96858.47;;;14.92;45.79
11172;BME280;5642;50.830;12.082;2024-02-23T01:23:06;96806.69;;;14.53;45.71
11172;BME280;5642;50.830;12.082;2024-02-23T01:25:32;96790.69;;;14.35;45.71
11172;BME280;5642;50.830;12.082;2024-02-23T01:28:00;96900.22;;;14.87;45.82
11172;BME280;5642;50.830;12.082;2024-02-23T01:30:26;96882.69;;;14.67;45.67
11172;BME280;5642;50.830;12.082;2024-02-23T01:32:52;96893.53;;;14.73;45.78
11172;BME280;5642;50.830;12.082;2024-02-23T01:35:18;96861.84;;;14.44;45.89
11172;BME280;5642;50.830;12.082;2024-02-23T01:37:44;96933.75;;;14.75;45.69
11172;BME280;5642;50.830;12.082;2024-02-23T01:40:10;96919.75;;;14.75;45.80
11172;BME280;5642;50.830;12.082;2024-02-23T01:42:36;96926.94;;;14.73;45.72
11172;BME280;5642;50.830;12.082;2024-02-23T01:45:02;96950.78;;;14.71;45.73
11172;BME280;5642;50.830;12.082;2024-02-23T01:47:29;96883.31;;;14.49;45.46
11172;BME280;5642;50.830;12.082;2024-02-23T01:49:57;96962.69;;;14.66;45.60
11172;BME280;5642;50.830;12.082;2024-02-23T01:52:24;96970.81;;;14.53;45.50
11172;BME280;5642;50.830;12.082;2024-02-23T01:54:52;96968.63;;;14.58;45.53
11172;BME280;5642;50.830;12.082;2024-02-23T01:57:19;96990.63;;;14.47;45.44
11172;BME280;5642;50.830;12.082;2024-02-23T01:59:47;96969.59;;;14.36;45.48
11172;BME280;5642;50.830;12.082;2024-02-23T02:02:13;96965.13;;;14.27;45.29
11172;BME280;5642;50.830;12.082;2024-02-23T02:04:40;96988.00;;;14.27;45.27
11172;BME280;5642;50.830;12.082;2024-02-23T02:07:06;97000.38;;;14.15;45.15
11172;BME280;5642;50.830;12.082;2024-02-23T02:09:32;96987.28;;;14.04;45.12
11172;BME280;5642;50.830;12.082;2024-02-23T02:11:58;97030.13;;;14.06;44.99
11172;BME280;5642;50.830;12.082;2024-02-23T02:14:24;97017.63;;;13.87;45.16
11172;BME280;5642;50.830;12.082;2024-02-23T02:16:51;97010.81;;;13.64;45.08
11172;BME280;5642;50.830;12.082;2024-02-23T02:19:17;97011.59;;;13.76;45.09
11172;BME280;5642;50.830;12.082;2024-02-23T02:21:45;97045.81;;;13.64;45.28
11172;BME280;5642;50.830;12.082;2024-02-23T02:24:11;97031.03;;;13.52;45.33
11172;BME280;5642;50.830;12.082;2024-02-23T02:26:37;97014.84;;;13.25;45.17
11172;BME280;5642;50.830;12.082;2024-02-23T02:29:03;97038.75;;;13.22;45.36
11172;BME280;5642;50.830;12.082;2024-02-23T02:31:29;97067.44;;;13.25;45.26
11172;BME280;5642;50.830;12.082;2024-02-23T02:33:56;97065.53;;;13.16;45.20
11172;BME280;5642;50.830;12.082;2024-02-23T02:36:22;97055.22;;;13.02;45.30
11172;BME280;5642;50.830;12.082;2024-02-23T02:38:48;97025.75;;;12.76;45.37
11172;BME280;5642;50.830;12.082;2024-02-23T02:41:16;97072.44;;;12.94;45.14
11172;BME280;5642;50.830;12.082;2024-02-23T02:43:43;97054.53;;;12.88;45.27
11172;BME280;5642;50.830;12.082;2024-02-23T02:46:09;97056.06;;;12.69;45.13
11172;BME280;5642;50.830;12.082;2024-02-23T02:48:35;97085.81;;;12.80;45.44
11172;BME280;5642;50.830;12.082;2024-02-23T02:51:01;97070.38;;;12.65;45.39
11172;BME280;5642;50.830;12.082;2024-02-23T02:53:27;97084.50;;;12.64;45.04
11172;BME280;5642;50.830;12.082;2024-02-23T02:55:54;97097.38;;;12.67;45.08
11172;BME280;5642;50.830;12.082;2024-02-23T02:58:20;97064.50;;;12.39;45.10
11172;BME280;5642;50.830;12.082;2024-02-23T03:00:46;97079.94;;;12.54;45.21
11172;BME280;5642;50.830;12.082;2024-02-23T03:03:13;97055.06;;;12.36;44.98
11172;BME280;5642;50.830;12.082;2024-02-23T03:05:39;97102.25;;;12.49;45.43
11172;BME280;5642;50.830;12.082;2024-02-23T03:08:06;97103.78;;;12.40;45.00
11172;BME280;5642;50.830;12.082;2024-02-23T03:10:32;97094.63;;;12.22;45.32
11172;BME280;5642;50.830;12.082;2024-02-23T03:12:58;97117.31;;;12.23;45.22
11172;BME280;5642;50.830;12.082;2024-02-23T03:15:24;97069.97;;;11.90;45.02
11172;BME280;5642;50.830;12.082;2024-02-23T03:17:51;97141.38;;;12.17;45.29
11172;BME280;5642;50.830;12.082;2024-02-23T03:20:18;97058.50;;;11.67;45.37
11172;BME280;5642;50.830;12.082;2024-02-23T03:22:44;97145.31;;;12.11;45.26
11172;BME280;5642;50.830;12.082;2024-02-23T03:25:11;97139.56;;;12.06;45.51
11172;BME280;5642;50.830;12.082;2024-02-23T03:27:37;97152.16;;;12.01;45.62
11172;BME280;5642;50.830;12.082;2024-02-23T03:30:05;97162.16;;;11.96;45.27
11172;BME280;5642;50.830;12.082;2024-02-23T03:32:32;97153.84;;;11.79;45.30
11172;BME280;5642;50.830;12.082;2024-02-23T03:35:04;97176.16;;;11.84;45.56
11172;BME280;5642;50.830;12.082;2024-02-23T03:37:31;97193.78;;;11.82;45.64
11172;BME280;5642;50.830;12.082;2024-02-23T03:39:59;97190.22;;;11.83;45.67
11172;BME280;5642;50.830;12.082;2024-02-23T03:42:28;97185.81;;;11.84;45.35
11172;BME280;5642;50.830;12.082;2024-02-23T03:44:54;97164.47;;;11.64;45.46
11172;BME280;5642;50.830;12.082;2024-02-23T03:47:20;97196.75;;;11.77;45.35
11172;BME280;5642;50.830;12.082;2024-02-23T03:49:46;97209.13;;;11.75;45.27
11172;BME280;5642;50.830;12.082;2024-02-23T03:52:12;97201.03;;;11.66;45.90
11172;BME280;5642;50.830;12.082;2024-02-23T03:54:39;97147.97;;;11.26;45.49
11172;BME280;5642;50.830;12.082;2024-02-23T03:57:05;97228.97;;;11.54;45.83
11172;BME280;5642;50.830;12.082;2024-02-23T03:59:32;97201.84;;;11.43;45.90
11172;BME280;5642;50.830;12.082;2024-02-23T04:01:58;97214.19;;;11.41;45.49
11172;BME280;5642;50.830;12.082;2024-02-23T04:04:24;97173.56;;;11.10;45.60
11172;BME280;5642;50.830;12.082;2024-02-23T04:06:50;97191.03;;;11.09;45.95
11172;BME280;5642;50.830;12.082;2024-02-23T04:09:16;97222.28;;;11.25;45.87
11172;BME280;5642;50.830;12.082;2024-02-23T04:11:42;97228.88;;;11.30;45.68
11172;BME280;5642;50.830;12.082;2024-02-23T04:14:08;97234.44;;;11.26;45.83
11172;BME280;5642;50.830;12.082;2024-02-23T04:16:34;97229.63;;;11.20;45.70
11172;BME280;5642;50.830;12.082;2024-02-23T04:19:00;97224.25;;;11.09;45.82
11172;BME280;5642;50.830;12.082;2024-02-23T04:21:26;97213.59;;;10.99;45.79
11172;BME280;5642;50.830;12.082;2024-02-23T04:23:52;97232.97;;;11.09;45.82
11172;BME280;5642;50.830;12.082;2024-02-23T04:26:18;97248.91;;;11.06;45.75
11172;BME280;5642;50.830;12.082;2024-02-23T04:28:44;97228.66;;;10.95;45.54
11172;BME280;5642;50.830;12.082;2024-02-23T04:31:10;97258.88;;;11.01;45.80
11172;BME280;5642;50.830;12.082;2024-02-23T04:33:37;97258.97;;;10.99;45.66
11172;BME280;5642;50.830;12.082;2024-02-23T04:36:04;97268.06;;;10.94;45.65
11172;BME280;5642;50.830;12.082;2024-02-23T04:38:30;97258.53;;;10.93;45.91
11172;BME280;5642;50.830;12.082;2024-02-23T04:40:57;97265.22;;;10.84;45.42
11172;BME280;5642;50.830;12.082;2024-02-23T04:43:24;97278.84;;;10.89;45.49
11172;BME280;5642;50.830;12.082;2024-02-23T04:45:51;97284.47;;;10.83;45.66
11172;BME280;5642;50.830;12.082;2024-02-23T04:48:17;97266.56;;;10.77;45.46
11172;BME280;5642;50.830;12.082;2024-02-23T04:50:43;97289.63;;;10.85;45.60
11172;BME280;5642;50.830;12.082;2024-02-23T04:53:09;97284.47;;;10.83;45.58
11172;BME280;5642;50.830;12.082;2024-02-23T04:55:35;97283.75;;;10.81;45.53
11172;BME280;5642;50.830;12.082;2024-02-23T04:58:01;97213.81;;;10.44;45.67
11172;BME280;5642;50.830;12.082;2024-02-23T05:00:27;97265.19;;;10.72;45.49
11172;BME280;5642;50.830;12.082;2024-02-23T05:03:02;97204.69;;;10.37;45.42
11172;BME280;5642;50.830;12.082;2024-02-23T05:05:30;97272.56;;;10.79;45.40
11172;BME280;5642;50.830;12.082;2024-02-23T05:07:56;97241.47;;;10.48;45.59
11172;BME280;5642;50.830;12.082;2024-02-23T05:10:22;97277.34;;;10.73;45.28
11172;BME280;5642;50.830;12.082;2024-02-23T05:12:49;97305.97;;;10.88;45.45
11172;BME280;5642;50.830;12.082;2024-02-23T05:15:16;97300.09;;;10.85;45.46
11172;BME280;5642;50.830;12.082;2024-02-23T05:17:42;97277.84;;;10.65;45.46
11172;BME280;5642;50.830;12.082;2024-02-23T05:20:11;97307.31;;;10.81;45.46
11172;BME280;5642;50.830;12.082;2024-02-23T05:22:38;97315.03;;;10.70;45.83
11172;BME280;5642;50.830;12.082;2024-02-23T05:25:05;97329.06;;;10.69;45.71
11172;BME280;5642;50.830;12.082;2024-02-23T05:27:31;97341.34;;;10.81;45.87
11172;BME280;5642;50.830;12.082;2024-02-23T05:29:57;97340.94;;;10.87;45.68
11172;BME280;5642;50.830;12.082;2024-02-23T05:32:25;97345.03;;;10.79;45.46
11172;BME280;5642;50.830;12.082;2024-02-23T05:34:52;97339.44;;;10.71;45.70
11172;BME280;5642;50.830;12.082;2024-02-23T05:37:20;97343.09;;;10.68;45.56
11172;BME280;5642;50.830;12.082;2024-02-23T05:39:46;97340.97;;;10.60;45.85
11172;BME280;5642;50.830;12.082;2024-02-23T05:42:12;97339.50;;;10.56;45.96
11172;BME280;5642;50.830;12.082;2024-02-23T05:44:39;97368.69;;;10.77;45.69
11172;BME280;5642;50.830;12.082;2024-02-23T05:47:05;97380.94;;;10.77;45.70
11172;BME280;5642;50.830;12.082;2024-02-23T05:49:31;97402.72;;;10.77;45.48
11172;BME280;5642;50.830;12.082;2024-02-23T05:51:57;97362.00;;;10.59;45.44
11172;BME280;5642;50.830;12.082;2024-02-23T05:54:23;97383.00;;;10.72;45.41
11172;BME280;5642;50.830;12.082;2024-02-23T05:56:49;97336.16;;;10.40;45.36
11172;BME280;5642;50.830;12.082;2024-02-23T05:59:15;97400.56;;;10.84;45.46
11172;BME280;5642;50.830;12.082;2024-02-23T06:01:41;97410.72;;;10.88;45.60
11172;BME280;5642;50.830;12.082;2024-02-23T06:04:07;97392.16;;;10.79;45.44
11172;BME280;5642;50.830;12.082;2024-02-23T06:06:33;97388.66;;;10.92;45.47
11172;BME280;5642;50.830;12.082;2024-02-23T06:08:59;97404.91;;;10.97;45.54
11172;BME280;5642;50.830;12.082;2024-02-23T06:11:26;97340.34;;;10.57;45.11
11172;BME280;5642;50.830;12.082;2024-02-23T06:13:52;97410.13;;;10.97;45.53
11172;BME280;5642;50.830;12.082;2024-02-23T06:16:18;97356.00;;;10.71;45.23
11172;BME280;5642;50.830;12.082;2024-02-23T06:18:44;97394.94;;;11.03;45.37
11172;BME280;5642;50.830;12.082;2024-02-23T06:21:17;97401.88;;;11.04;45.06
11172;BME280;5642;50.830;12.082;2024-02-23T06:23:44;97426.91;;;11.22;45.22
11172;BME280;5642;50.830;12.082;2024-02-23T06:26:10;97427.41;;;11.27;45.19
11172;BME280;5642;50.830;12.082;2024-02-23T06:28:37;97403.59;;;11.17;45.31
11172;BME280;5642;50.830;12.082;2024-02-23T06:31:08;97426.16;;;11.32;45.27
11172;BME280;5642;50.830;12.082;2024-02-23T06:33:34;97408.72;;;11.19;45.24
11172;BME280;5642;50.830;12.082;2024-02-23T06:36:00;97366.44;;;10.98;45.06
11172;BME280;5642;50.830;12.082;2024-02-23T06:38:27;97434.88;;;11.33;45.03
11172;BME280;5642;50.830;12.082;2024-02-23T06:40:54;97400.00;;;11.06;45.04
11172;BME280;5642;50.830;12.082;2024-02-23T06:43:21;97350.81;;;10.96;45.15
11172;BME280;5642;50.830;12.082;2024-02-23T06:45:47;97423.88;;;11.41;45.26
11172;BME280;5642;50.830;12.082;2024-02-23T06:48:19;97405.19;;;11.20;44.95
11172;BME280;5642;50.830;12.082;2024-02-23T06:50:46;97439.09;;;11.48;45.26
11172;BME280;5642;50.830;12.082;2024-02-23T06:53:12;97395.19;;;11.12;45.15
11172;BME280;5642;50.830;12.082;2024-02-23T06:55:38;97420.50;;;11.26;45.04
11172;BME280;5642;50.830;12.082;2024-02-23T06:58:05;97492.59;;;11.58;45.29
11172;BME280;5642;50.830;12.082;2024-02-23T07:00:33;97494.63;;;11.67;45.08
11172;BME280;5642;50.830;12.082;2024-02-23T07:02:59;97495.94;;;11.74;45.10
11172;BME280;5642;50.830;12.082;2024-02-23T07:05:27;97469.47;;;11.65;44.95
11172;BME280;5642;50.830;12.082;2024-02-23T07:07:53;97495.84;;;11.76;44.97
11172;BME280;5642;50.830;12.082;2024-02-23T07:10:19;97488.44;;;11.68;44.91
11172;BME280;5642;50.830;12.082;2024-02-23T07:12:48;97489.47;;;11.66;44.86
11172;BME280;5642;50.830;12.082;2024-02-23T07:15:14;97507.59;;;11.83;44.78
11172;BME280;5642;50.830;12.082;2024-02-23T07:17:40;97504.31;;;11.80;45.04
11172;BME280;5642;50.830;12.082;2024-02-23T07:20:06;97497.63;;;11.88;45.10
11172;BME280;5642;50.830;12.082;2024-02-23T07:22:32;97457.69;;;11.58;44.81
11172;BME280;5642;50.830;12.082;2024-02-23T07:25:07;97556.75;;;12.06;44.85
11172;BME280;5642;50.830;12.082;2024-02-23T07:27:33;97507.31;;;11.73;44.74
11172;BME280;5642;50.830;12.082;2024-02-23T07:29:59;97555.50;;;11.99;44.91
11172;BME280;5642;50.830;12.082;2024-02-23T07:32:25;97567.25;;;12.06;44.83
11172;BME280;5642;50.830;12.082;2024-02-23T07:34:52;97541.28;;;11.89;44.80
11172;BME280;5642;50.830;12.082;2024-02-23T07:37:18;97490.94;;;11.57;44.84
11172;BME280;5642;50.830;12.082;2024-02-23T07:39:44;97542.03;;;11.91;44.76
11172;BME280;5642;50.830;12.082;2024-02-23T07:42:10;97526.59;;;11.87;44.78
11172;BME280;5642;50.830;12.082;2024-02-23T07:44:36;97468.56;;;11.52;44.92
11172;BME280;5642;50.830;12.082;2024-02-23T07:47:03;97523.34;;;11.83;44.68
11172;BME280;5642;50.830;12.082;2024-02-23T07:49:29;97494.41;;;11.58;45.06
11172;BME280;5642;50.830;12.082;2024-02-23T07:51:56;97590.66;;;12.09;44.65
11172;BME280;5642;50.830;12.082;2024-02-23T07:54:22;97541.88;;;11.80;44.89
11172;BME280;5642;50.830;12.082;2024-02-23T07:56:48;97513.91;;;11.66;44.55
11172;BME280;5642;50.830;12.082;2024-02-23T07:59:14;97496.63;;;11.64;44.71
11172;BME280;5642;50.830;12.082;2024-02-23T08:01:40;97512.69;;;11.72;44.46
11172;BME280;5642;50.830;12.082;2024-02-23T08:04:07;97484.44;;;11.63;44.47
11172;BME280;5642;50.830;12.082;2024-02-23T08:06:33;97493.22;;;11.76;44.49
11172;BME280;5642;50.830;12.082;2024-02-23T08:09:02;97528.59;;;12.08;44.26
11172;BME280;5642;50.830;12.082;2024-02-23T08:11:28;97568.31;;;12.29;44.28
11172;BME280;5642;50.830;12.082;2024-02-23T08:13:54;97548.28;;;12.28;43.74
11172;BME280;5642;50.830;12.082;2024-02-23T08:16:20;97559.31;;;12.46;44.09
11172;BME280;5642;50.830;12.082;2024-02-23T08:18:46;97569.19;;;12.55;43.84
11172;BME280;5642;50.830;12.082;2024-02-23T08:21:13;97529.81;;;12.42;43.78
11172;BME280;5642;50.830;12.082;2024-02-23T08:23:41;97553.84;;;12.62;43.83
11172;BME280;5642;50.830;12.082;2024-02-23T08:26:07;97562.22;;;12.67;43.84
11172;BME280;5642;50.830;12.082;2024-02-23T08:28:34;97528.94;;;12.54;43.65
11172;BME280;5642;50.830;12.082;2024-02-23T08:31:00;97564.84;;;12.79;43.53
11172;BME280;5642;50.830;12.082;2024-02-23T08:33:26;97575.75;;;12.86;43.58
11172;BME280;5642;50.830;12.082;2024-02-23T08:35:52;97546.78;;;12.75;43.72
11172;BME280;5642;50.830;12.082;2024-02-23T08:38:18;97527.38;;;12.52;43.32
11172;BME280;5642;50.830;12.082;2024-02-23T08:40:44;97573.56;;;12.80;43.21
11172;BME280;5642;50.830;12.082;2024-02-23T08:43:11;97588.09;;;12.85;43.44
11172;BME280;5642;50.830;12.082;2024-02-23T08:45:37;97605.63;;;12.98;43.62
11172;BME280;5642;50.830;12.082;2024-02-23T08:48:03;97581.16;;;12.84;43.14
11172;BME280;5642;50.830;12.082;2024-02-23T08:50:29;97579.53;;;12.94;43.24
11172;BME280;5642;50.830;12.082;2024-02-23T08:52:55;97614.13;;;13.26;43.22
11172;BME280;5642;50.830;12.082;2024-02-23T08:55:22;97527.75;;;12.84;43.12
11172;BME280;5642;50.830;12.082;2024-02-23T08:57:48;97570.59;;;13.10;42.98
11172;BME280;5642;50.830;12.082;2024-02-23T09:00:15;97544.53;;;12.94;42.90
11172;BME280;5642;50.830;12.082;2024-02-23T09:02:41;97531.94;;;12.99;43.08
11172;BME280;5642;50.830;12.082;2024-02-23T09:05:10;97509.56;;;12.81;43.03
11172;BME280;5642;50.830;12.082;2024-02-23T09:07:36;97604.63;;;13.37;42.82
11172;BME280;5642;50.830;12.082;2024-02-23T09:10:02;97559.34;;;13.08;43.10
11172;BME280;5642;50.830;12.082;2024-02-23T09:12:31;97532.69;;;12.88;43.05
11172;BME280;5642;50.830;12.082;2024-02-23T09:14:57;97501.09;;;12.77;42.97
11172;BME280;5642;50.830;12.082;2024-02-23T09:17:23;97520.91;;;12.94;43.10
11172;BME280;5642;50.830;12.082;2024-02-23T09:19:49;97573.41;;;13.32;42.93
11172;BME280;5642;50.830;12.082;2024-02-23T09:22:15;97566.16;;;13.36;42.70
11172;BME280;5642;50.830;12.082;2024-02-23T09:24:42;97532.13;;;13.21;42.68
11172;BME280;5642;50.830;12.082;2024-02-23T09:27:08;97584.06;;;13.54;42.63
11172;BME280;5642;50.830;12.082;2024-02-23T09:29:34;97539.91;;;13.47;42.57
11172;BME280;5642;50.830;12.082;2024-02-23T09:32:01;97537.31;;;13.58;42.32
11172;BME280;5642;50.830;12.082;2024-02-23T09:34:27;97586.91;;;13.99;42.29
11172;BME280;5642;50.830;12.082;2024-02-23T09:36:53;97586.84;;;14.11;42.30
11172;BME280;5642;50.830;12.082;2024-02-23T09:39:19;97527.94;;;14.01;42.01
11172;BME280;5642;50.830;12.082;2024-02-23T09:41:50;97551.22;;;14.30;41.85
11172;BME280;5642;50.830;12.082;2024-02-23T09:44:18;97570.31;;;14.44;41.86
11172;BME280;5642;50.830;12.082;2024-02-23T09:46:46;97587.13;;;14.66;41.94
11172;BME280;5642;50.830;12.082;2024-02-23T09:49:15;97583.41;;;14.79;41.64
11172;BME280;5642;50.830;12.082;2024-02-23T09:51:43;97570.13;;;14.70;41.73
11172;BME280;5642;50.830;12.082;2024-02-23T09:54:10;97606.66;;;14.74;41.68
11172;BME280;5642;50.830;12.082;2024-02-23T09:56:36;97594.69;;;14.70;41.59
11172;BME280;5642;50.830;12.082;2024-02-23T09:59:03;97602.13;;;14.87;41.49
11172;BME280;5642;50.830;12.082;2024-02-23T10:01:32;97593.84;;;15.14;41.50
11172;BME280;5642;50.830;12.082;2024-02-23T10:04:00;97617.69;;;15.57;41.32
11172;BME280;5642;50.830;12.082;2024-02-23T10:06:28;97600.69;;;15.93;41.09
11172;BME280;5642;50.830;12.082;2024-02-23T10:08:54;97540.03;;;15.71;41.02
11172;BME280;5642;50.830;12.082;2024-02-23T10:11:21;97544.34;;;15.83;40.86
11172;BME280;5642;50.830;12.082;2024-02-23T10:13:48;97523.50;;;15.69;41.08
11172;BME280;5642;50.830;12.082;2024-02-23T10:16:21;97617.63;;;16.23;40.82
11172;BME280;5642;50.830;12.082;2024-02-23T10:18:48;97545.25;;;15.61;41.04
11172;BME280;5642;50.830;12.082;2024-02-23T10:21:17;97588.38;;;15.72;40.88
11172;BME280;5642;50.830;12.082;2024-02-23T10:23:44;97643.44;;;15.87;41.12
11172;BME280;5642;50.830;12.082;2024-02-23T10:26:11;97636.03;;;15.70;41.01
11172;BME280;5642;50.830;12.082;2024-02-23T10:28:37;97645.19;;;15.55;41.16
11172;BME280;5642;50.830;12.082;2024-02-23T10:31:06;97633.75;;;15.43;41.10
11172;BME280;5642;50.830;12.082;2024-02-23T10:33:34;97653.66;;;15.47;41.03
11172;BME280;5642;50.830;12.082;2024-02-23T10:36:01;97650.44;;;15.33;41.23
11172;BME280;5642;50.830;12.082;2024-02-23T10:38:32;97661.22;;;15.18;41.23
11172;BME280;5642;50.830;12.082;2024-02-23T10:40:58;97591.22;;;14.70;41.19
11172;BME280;5642;50.830;12.082;2024-02-23T10:43:56;97602.81;;;14.67;41.07
11172;BME280;5642;50.830;12.082;2024-02-23T10:46:25;97672.59;;;14.97;41.15
11172;BME280;5642;50.830;12.082;2024-02-23T10:48:52;97673.88;;;14.80;41.16
11172;BME280;5642;50.830;12.082;2024-02-23T10:51:21;97666.03;;;14.56;41.29
11172;BME280;5642;50.830;12.082;2024-02-23T10:53:48;97679.69;;;14.37;41.35
11172;BME280;5642;50.830;12.082;2024-02-23T10:56:15;97672.44;;;14.17;41.31
11172;BME280;5642;50.830;12.082;2024-02-23T10:58:42;97656.22;;;13.87;41.27
11172;BME280;5642;50.830;12.082;2024-02-23T11:01:11;97695.06;;;13.96;41.43
11172;BME280;5642;50.830;12.082;2024-02-23T11:03:42;97689.50;;;13.88;41.30
11172;BME280;5642;50.830;12.082;2024-02-23T11:06:08;97634.97;;;13.53;41.33
11172;BME280;5642;50.830;12.082;2024-02-23T11:08:35;97697.88;;;13.93;41.52
11172;BME280;5642;50.830;12.082;2024-02-23T11:11:09;97699.25;;;13.98;41.49
11172;BME280;5642;50.830;12.082;2024-02-23T11:13:36;97679.41;;;13.82;41.43
11172;BME280;5642;50.830;12.082;2024-02-23T11:16:06;97700.88;;;13.88;41.31
11172;BME280;5642;50.830;12.082;2024-02-23T11:18:39;97697.50;;;13.86;41.26
11172;BME280;5642;50.830;12.082;2024-02-23T11:21:09;97639.19;;;13.56;41.32
11172;BME280;5642;50.830;12.082;2024-02-23T11:23:50;97683.78;;;13.94;41.06
11172;BME280;5642;50.830;12.082;2024-02-23T11:26:29;97664.81;;;13.78;41.43
11172;BME280;5642;50.830;12.082;2024-02-23T11:28:58;97665.31;;;13.83;41.27
11172;BME280;5642;50.830;12.082;2024-02-23T11:31:30;97678.91;;;14.00;41.32
11172;BME280;5642;50.830;12.082;2024-02-23T11:33:57;97622.53;;;13.68;41.29
11172;BME280;5642;50.830;12.082;2024-02-23T11:36:32;97631.09;;;13.83;41.15
11172;BME280;5642;50.830;12.082;2024-02-23T11:39:01;97686.81;;;14.24;41.14
11172;BME280;5642;50.830;12.082;2024-02-23T11:41:36;97657.75;;;14.26;41.04
11172;BME280;5642;50.830;12.082;2024-02-23T11:44:03;97667.72;;;14.33;41.20
11172;BME280;5642;50.830;12.082;2024-02-23T11:46:32;97658.72;;;14.36;41.03
11172;BME280;5642;50.830;12.082;2024-02-23T11:49:01;97643.75;;;14.36;41.06
11172;BME280;5642;50.830;12.082;2024-02-23T11:51:34;97672.38;;;14.54;40.98
11172;BME280;5642;50.830;12.082;2024-02-23T11:54:03;97671.53;;;14.53;40.99
11172;BME280;5642;50.830;12.082;2024-02-23T11:56:29;97679.88;;;14.47;41.16
11172;BME280;5642;50.830;12.082;2024-02-23T11:58:57;97663.34;;;14.45;40.87
11172;BME280;5642;50.830;12.082;2024-02-23T12:01:25;97623.03;;;14.21;40.81
11172;BME280;5642;50.830;12.082;2024-02-23T12:03:55;97624.19;;;14.17;40.97
11172;BME280;5642;50.830;12.082;2024-02-23T12:06:22;97648.94;;;14.14;40.96
11172;BME280;5642;50.830;12.082;2024-02-23T12:08:51;97601.03;;;13.74;40.97
11172;BME280;5642;50.830;12.082;2024-02-23T12:11:21;97584.66;;;13.58;40.92
11172;BME280;5642;50.830;12.082;2024-02-23T12:13:49;97659.63;;;14.00;41.13
11172;BME280;5642;50.830;12.082;2024-02-23T12:16:21;97674.38;;;14.02;41.11
11172;BME280;5642;50.830;12.082;2024-02-23T12:18:53;97667.53;;;14.00;41.01
11172;BME280;5642;50.830;12.082;2024-02-23T12:21:23;97614.44;;;13.58;40.99
11172;BME280;5642;50.830;12.082;2024-02-23T12:23:54;97629.19;;;13.61;41.26
11172;BME280;5642;50.830;12.082;2024-02-23T12:26:23;97602.72;;;13.39;40.89
11172;BME280;5642;50.830;12.082;2024-02-23T12:28:50;97577.63;;;13.22;40.92
11172;BME280;5642;50.830;12.082;2024-02-23T12:31:24;97675.19;;;13.79;41.28
11172;BME280;5642;50.830;12.082;2024-02-23T12:33:51;97665.84;;;13.75;41.00
11172;BME280;5642;50.830;12.082;2024-02-23T12:36:17;97668.69;;;13.72;41.25
11172;BME280;5642;50.830;12.082;2024-02-23T12:38:44;97654.19;;;13.66;40.95
11172;BME280;5642;50.830;12.082;2024-02-23T12:41:10;97657.66;;;13.67;41.12
11172;BME280;5642;50.830;12.082;2024-02-23T12:43:37;97674.81;;;13.72;41.03
11172;BME280;5642;50.830;12.082;2024-02-23T12:46:03;97678.72;;;13.67;41.13
11172;BME280;5642;50.830;12.082;2024-02-23T12:48:32;97614.88;;;13.28;41.17
11172;BME280;5642;50.830;12.082;2024-02-23T12:50:59;97686.31;;;13.59;41.01
11172;BME280;5642;50.830;12.082;2024-02-23T12:53:39;97655.31;;;13.39;40.97
11172;BME280;5642;50.830;12.082;2024-02-23T12:56:07;97636.31;;;13.22;41.05
11172;BME280;5642;50.830;12.082;2024-02-23T12:58:41;97591.53;;;12.86;40.82
11172;BME280;5642;50.830;12.082;2024-02-23T13:01:09;97590.81;;;12.84;40.91